sensor_id;sensor_type;location;lat;lon;timestamp;temperature;humidity
6627;DHT22;3349;49.830;8.748;2023-07-31T00:01:03;18.40;66.90
6627;DHT22;3349;49.830;8.748;2023-07-31T00:03:30;18.40;67.70
6627;DHT22;3349;49.830;8.748;2023-07-31T00:05:56;18.40;68.90
6627;DHT22;3349;49.830;8.748;2023-07-31T00:08:24;18.40;68.40
6627;DHT22;3349;49.830;8.748;2023-07-31T00:10:51;18.30;68.80
6627;DHT22;3349;49.830;8.748;2023-07-31T00:13:19;18.30;70.40
6627;DHT22;3349;49.830;8.748;2023-07-31T00:15:45;18.30;70.70
6627;DHT22;3349;49.830;8.748;2023-07-31T00:18:12;18.20;69.20
6627;DHT22;3349;49.830;8.748;2023-07-31T00:20:39;18.20;70.90
6627;DHT22;3349;49.830;8.748;2023-07-31T00:23:06;18.20;71.90
6627;DHT22;3349;49.830;8.748;2023-07-31T00:25:34;18.10;71.50
6627;DHT22;3349;49.830;8.748;2023-07-31T00:28:00;18.00;73.50
6627;DHT22;3349;49.830;8.748;2023-07-31T00:30:27;17.90;77.50
6627;DHT22;3349;49.830;8.748;2023-07-31T00:32:54;17.90;78.00
6627;DHT22;3349;49.830;8.748;2023-07-31T00:35:20;17.90;75.30
6627;DHT22;3349;49.830;8.748;2023-07-31T00:37:47;17.90;75.90
6627;DHT22;3349;49.830;8.748;2023-07-31T00:40:14;18.00;77.60
6627;DHT22;3349;49.830;8.748;2023-07-31T00:42:42;18.00;73.80
6627;DHT22;3349;49.830;8.748;2023-07-31T00:45:09;18.00;73.10
6627;DHT22;3349;49.830;8.748;2023-07-31T00:47:36;18.10;72.70
6627;DHT22;3349;49.830;8.748;2023-07-31T00:50:03;18.10;73.00
6627;DHT22;3349;49.830;8.748;2023-07-31T00:52:30;18.10;67.80
6627;DHT22;3349;49.830;8.748;2023-07-31T00:54:57;18.10;66.80
6627;DHT22;3349;49.830;8.748;2023-07-31T00:57:23;18.20;69.00
6627;DHT22;3349;49.830;8.748;2023-07-31T00:59:51;18.20;67.20
6627;DHT22;3349;49.830;8.748;2023-07-31T01:02:18;18.20;65.20
6627;DHT22;3349;49.830;8.748;2023-07-31T01:04:46;18.30;64.10
6627;DHT22;3349;49.830;8.748;2023-07-31T01:07:18;18.30;65.20
6627;DHT22;3349;49.830;8.748;2023-07-31T01:09:52;18.30;63.50
6627;DHT22;3349;49.830;8.748;2023-07-31T01:12:21;18.40;62.80
6627;DHT22;3349;49.830;8.748;2023-07-31T01:15:02;18.40;62.40
6627;DHT22;3349;49.830;8.748;2023-07-31T01:17:29;18.40;61.40
6627;DHT22;3349;49.830;8.748;2023-07-31T01:20:00;18.40;62.70
6627;DHT22;3349;49.830;8.748;2023-07-31T01:22:39;18.50;61.90
6627;DHT22;3349;49.830;8.748;2023-07-31T01:25:20;18.50;61.70
6627;DHT22;3349;49.830;8.748;2023-07-31T01:27:59;18.50;61.70
6627;DHT22;3349;49.830;8.748;2023-07-31T01:30:32;18.50;61.10
6627;DHT22;3349;49.830;8.748;2023-07-31T01:33:01;18.50;60.80
6627;DHT22;3349;49.830;8.748;2023-07-31T01:35:32;18.50;60.90
6627;DHT22;3349;49.830;8.748;2023-07-31T01:37:59;18.50;60.10
6627;DHT22;3349;49.830;8.748;2023-07-31T01:40:25;18.50;60.10
6627;DHT22;3349;49.830;8.748;2023-07-31T01:42:53;18.50;59.50
6627;DHT22;3349;49.830;8.748;2023-07-31T01:45:20;18.50;59.60
6627;DHT22;3349;49.830;8.748;2023-07-31T01:47:47;18.60;60.50
6627;DHT22;3349;49.830;8.748;2023-07-31T01:50:13;18.50;60.60
6627;DHT22;3349;49.830;8.748;2023-07-31T01:52:40;18.50;59.70
6627;DHT22;3349;49.830;8.748;2023-07-31T01:55:07;18.50;59.90
6627;DHT22;3349;49.830;8.748;2023-07-31T01:57:34;18.60;59.30
6627;DHT22;3349;49.830;8.748;2023-07-31T02:00:04;18.50;59.80
6627;DHT22;3349;49.830;8.748;2023-07-31T02:02:31;18.50;59.90
6627;DHT22;3349;49.830;8.748;2023-07-31T02:04:57;18.50;61.30
6627;DHT22;3349;49.830;8.748;2023-07-31T02:07:24;18.40;61.70
6627;DHT22;3349;49.830;8.748;2023-07-31T02:09:51;18.40;62.30
6627;DHT22;3349;49.830;8.748;2023-07-31T02:12:17;18.40;63.20
6627;DHT22;3349;49.830;8.748;2023-07-31T02:14:44;18.30;64.10
6627;DHT22;3349;49.830;8.748;2023-07-31T02:17:12;18.30;63.90
6627;DHT22;3349;49.830;8.748;2023-07-31T02:19:39;18.30;63.50
6627;DHT22;3349;49.830;8.748;2023-07-31T02:22:06;18.20;63.30
6627;DHT22;3349;49.830;8.748;2023-07-31T02:24:32;18.20;64.00
6627;DHT22;3349;49.830;8.748;2023-07-31T02:26:59;18.20;64.00
6627;DHT22;3349;49.830;8.748;2023-07-31T02:29:26;18.20;64.00
6627;DHT22;3349;49.830;8.748;2023-07-31T02:31:53;18.20;65.10
6627;DHT22;3349;49.830;8.748;2023-07-31T02:34:21;18.10;65.30
6627;DHT22;3349;49.830;8.748;2023-07-31T02:36:47;18.10;64.80
6627;DHT22;3349;49.830;8.748;2023-07-31T02:39:14;18.10;65.70
6627;DHT22;3349;49.830;8.748;2023-07-31T02:41:41;18.10;65.40
6627;DHT22;3349;49.830;8.748;2023-07-31T02:44:07;18.10;65.30
6627;DHT22;3349;49.830;8.748;2023-07-31T02:46:35;18.00;65.90
6627;DHT22;3349;49.830;8.748;2023-07-31T02:49:02;18.00;66.00
6627;DHT22;3349;49.830;8.748;2023-07-31T02:51:30;18.00;66.20
6627;DHT22;3349;49.830;8.748;2023-07-31T02:53:57;17.90;66.40
6627;DHT22;3349;49.830;8.748;2023-07-31T02:56:23;17.90;66.80
6627;DHT22;3349;49.830;8.748;2023-07-31T02:58:50;17.90;66.20
6627;DHT22;3349;49.830;8.748;2023-07-31T03:01:17;18.00;65.50
6627;DHT22;3349;49.830;8.748;2023-07-31T03:03:43;18.00;64.80
6627;DHT22;3349;49.830;8.748;2023-07-31T03:06:10;18.00;64.80
6627;DHT22;3349;49.830;8.748;2023-07-31T03:08:38;18.00;65.60
6627;DHT22;3349;49.830;8.748;2023-07-31T03:11:05;18.00;65.90
6627;DHT22;3349;49.830;8.748;2023-07-31T03:13:31;17.90;65.50
6627;DHT22;3349;49.830;8.748;2023-07-31T03:15:58;18.00;66.30
6627;DHT22;3349;49.830;8.748;2023-07-31T03:18:25;17.90;66.20
6627;DHT22;3349;49.830;8.748;2023-07-31T03:20:51;17.90;66.30
6627;DHT22;3349;49.830;8.748;2023-07-31T03:23:18;17.90;66.40
6627;DHT22;3349;49.830;8.748;2023-07-31T03:25:57;17.90;65.70
6627;DHT22;3349;49.830;8.748;2023-07-31T03:28:23;17.90;65.70
6627;DHT22;3349;49.830;8.748;2023-07-31T03:30:51;17.90;65.80
6627;DHT22;3349;49.830;8.748;2023-07-31T03:33:18;17.90;66.20
6627;DHT22;3349;49.830;8.748;2023-07-31T03:35:44;17.90;67.10
6627;DHT22;3349;49.830;8.748;2023-07-31T03:38:11;18.10;73.30
6627;DHT22;3349;49.830;8.748;2023-07-31T03:40:38;17.70;81.20
6627;DHT22;3349;49.830;8.748;2023-07-31T03:43:06;17.60;79.80
6627;DHT22;3349;49.830;8.748;2023-07-31T03:45:33;17.50;83.20
6627;DHT22;3349;49.830;8.748;2023-07-31T03:47:59;17.40;84.40
6627;DHT22;3349;49.830;8.748;2023-07-31T03:50:26;17.30;87.20
6627;DHT22;3349;49.830;8.748;2023-07-31T03:52:53;17.20;88.30
6627;DHT22;3349;49.830;8.748;2023-07-31T03:55:20;17.10;90.80
6627;DHT22;3349;49.830;8.748;2023-07-31T03:57:47;17.00;90.50
6627;DHT22;3349;49.830;8.748;2023-07-31T04:00:15;17.00;93.00
6627;DHT22;3349;49.830;8.748;2023-07-31T04:02:42;16.80;91.80
6627;DHT22;3349;49.830;8.748;2023-07-31T04:05:08;16.80;93.60
6627;DHT22;3349;49.830;8.748;2023-07-31T04:07:36;16.80;93.30
6627;DHT22;3349;49.830;8.748;2023-07-31T04:10:03;16.80;93.80
6627;DHT22;3349;49.830;8.748;2023-07-31T04:12:30;16.80;93.00
6627;DHT22;3349;49.830;8.748;2023-07-31T04:14:57;16.70;91.50
6627;DHT22;3349;49.830;8.748;2023-07-31T04:17:25;16.80;92.70
6627;DHT22;3349;49.830;8.748;2023-07-31T04:19:51;16.80;93.00
6627;DHT22;3349;49.830;8.748;2023-07-31T04:22:18;16.90;92.30
6627;DHT22;3349;49.830;8.748;2023-07-31T04:24:45;16.90;91.20
6627;DHT22;3349;49.830;8.748;2023-07-31T04:27:11;17.00;89.50
6627;DHT22;3349;49.830;8.748;2023-07-31T04:29:38;17.00;90.90
6627;DHT22;3349;49.830;8.748;2023-07-31T04:32:07;17.10;90.00
6627;DHT22;3349;49.830;8.748;2023-07-31T04:34:35;17.10;85.60
6627;DHT22;3349;49.830;8.748;2023-07-31T04:37:03;17.20;85.30
6627;DHT22;3349;49.830;8.748;2023-07-31T04:39:29;17.30;83.60
6627;DHT22;3349;49.830;8.748;2023-07-31T04:41:56;17.30;82.40
6627;DHT22;3349;49.830;8.748;2023-07-31T04:44:23;17.30;85.00
6627;DHT22;3349;49.830;8.748;2023-07-31T04:46:49;17.30;81.50
6627;DHT22;3349;49.830;8.748;2023-07-31T04:49:16;17.40;83.10
6627;DHT22;3349;49.830;8.748;2023-07-31T04:51:44;17.40;82.30
6627;DHT22;3349;49.830;8.748;2023-07-31T04:54:11;17.40;77.10
6627;DHT22;3349;49.830;8.748;2023-07-31T04:56:40;17.40;79.90
6627;DHT22;3349;49.830;8.748;2023-07-31T04:59:07;17.50;80.50
6627;DHT22;3349;49.830;8.748;2023-07-31T05:01:33;17.50;78.20
6627;DHT22;3349;49.830;8.748;2023-07-31T05:04:02;17.50;77.20
6627;DHT22;3349;49.830;8.748;2023-07-31T05:06:29;17.60;77.20
6627;DHT22;3349;49.830;8.748;2023-07-31T05:08:57;17.60;76.80
6627;DHT22;3349;49.830;8.748;2023-07-31T05:11:24;17.70;76.30
6627;DHT22;3349;49.830;8.748;2023-07-31T05:13:51;17.70;75.50
6627;DHT22;3349;49.830;8.748;2023-07-31T05:16:17;17.70;75.50
6627;DHT22;3349;49.830;8.748;2023-07-31T05:18:44;17.70;73.90
6627;DHT22;3349;49.830;8.748;2023-07-31T05:21:11;17.70;72.90
6627;DHT22;3349;49.830;8.748;2023-07-31T05:23:37;17.70;72.90
6627;DHT22;3349;49.830;8.748;2023-07-31T05:26:05;17.70;72.80
6627;DHT22;3349;49.830;8.748;2023-07-31T05:28:33;17.80;73.60
6627;DHT22;3349;49.830;8.748;2023-07-31T05:31:00;17.80;75.90
6627;DHT22;3349;49.830;8.748;2023-07-31T05:33:27;17.90;73.20
6627;DHT22;3349;49.830;8.748;2023-07-31T05:35:54;17.90;73.00
6627;DHT22;3349;49.830;8.748;2023-07-31T05:38:21;17.90;70.90
6627;DHT22;3349;49.830;8.748;2023-07-31T05:40:47;17.90;71.60
6627;DHT22;3349;49.830;8.748;2023-07-31T05:43:15;18.00;73.80
6627;DHT22;3349;49.830;8.748;2023-07-31T05:45:42;18.10;72.20
6627;DHT22;3349;49.830;8.748;2023-07-31T05:48:09;18.10;71.10
6627;DHT22;3349;49.830;8.748;2023-07-31T05:50:36;18.10;71.80
6627;DHT22;3349;49.830;8.748;2023-07-31T05:53:04;18.10;71.70
6627;DHT22;3349;49.830;8.748;2023-07-31T05:55:31;18.20;69.90
6627;DHT22;3349;49.830;8.748;2023-07-31T05:57:58;18.20;70.40
6627;DHT22;3349;49.830;8.748;2023-07-31T06:00:26;18.20;70.20
6627;DHT22;3349;49.830;8.748;2023-07-31T06:02:53;18.20;69.60
6627;DHT22;3349;49.830;8.748;2023-07-31T06:05:19;18.30;69.30
6627;DHT22;3349;49.830;8.748;2023-07-31T06:07:46;18.30;68.80
6627;DHT22;3349;49.830;8.748;2023-07-31T06:10:13;18.20;70.10
6627;DHT22;3349;49.830;8.748;2023-07-31T06:12:39;18.20;70.30
6627;DHT22;3349;49.830;8.748;2023-07-31T06:15:07;18.30;69.70
6627;DHT22;3349;49.830;8.748;2023-07-31T06:17:35;18.30;70.90
6627;DHT22;3349;49.830;8.748;2023-07-31T06:20:01;18.40;69.60
6627;DHT22;3349;49.830;8.748;2023-07-31T06:22:30;18.50;69.20
6627;DHT22;3349;49.830;8.748;2023-07-31T06:24:57;18.60;67.50
6627;DHT22;3349;49.830;8.748;2023-07-31T06:27:24;18.70;67.80
6627;DHT22;3349;49.830;8.748;2023-07-31T06:29:51;18.70;67.50
6627;DHT22;3349;49.830;8.748;2023-07-31T06:32:17;18.80;66.40
6627;DHT22;3349;49.830;8.748;2023-07-31T06:34:45;18.70;66.00
6627;DHT22;3349;49.830;8.748;2023-07-31T06:37:12;18.70;67.20
6627;DHT22;3349;49.830;8.748;2023-07-31T06:39:39;18.80;67.50
6627;DHT22;3349;49.830;8.748;2023-07-31T06:42:06;18.80;66.90
6627;DHT22;3349;49.830;8.748;2023-07-31T06:44:32;18.90;67.40
6627;DHT22;3349;49.830;8.748;2023-07-31T06:46:59;18.90;66.30
6627;DHT22;3349;49.830;8.748;2023-07-31T06:49:26;19.00;65.40
6627;DHT22;3349;49.830;8.748;2023-07-31T06:51:54;19.20;65.70
6627;DHT22;3349;49.830;8.748;2023-07-31T06:54:20;19.20;65.00
6627;DHT22;3349;49.830;8.748;2023-07-31T06:56:47;19.30;65.10
6627;DHT22;3349;49.830;8.748;2023-07-31T06:59:14;19.50;64.10
6627;DHT22;3349;49.830;8.748;2023-07-31T07:01:40;19.50;63.40
6627;DHT22;3349;49.830;8.748;2023-07-31T07:04:07;19.50;63.50
6627;DHT22;3349;49.830;8.748;2023-07-31T07:06:34;19.40;64.10
6627;DHT22;3349;49.830;8.748;2023-07-31T07:09:02;19.40;62.70
6627;DHT22;3349;49.830;8.748;2023-07-31T07:11:29;19.40;64.00
6627;DHT22;3349;49.830;8.748;2023-07-31T07:13:56;19.40;64.10
6627;DHT22;3349;49.830;8.748;2023-07-31T07:16:23;19.50;63.50
6627;DHT22;3349;49.830;8.748;2023-07-31T07:18:49;19.50;64.70
6627;DHT22;3349;49.830;8.748;2023-07-31T07:21:16;19.70;63.80
6627;DHT22;3349;49.830;8.748;2023-07-31T07:23:43;19.80;63.20
6627;DHT22;3349;49.830;8.748;2023-07-31T07:26:11;20.00;62.70
6627;DHT22;3349;49.830;8.748;2023-07-31T07:28:38;20.10;62.70
6627;DHT22;3349;49.830;8.748;2023-07-31T07:31:04;20.10;62.40
6627;DHT22;3349;49.830;8.748;2023-07-31T07:33:31;20.20;61.80
6627;DHT22;3349;49.830;8.748;2023-07-31T07:36:00;20.20;61.40
6627;DHT22;3349;49.830;8.748;2023-07-31T07:38:27;20.30;61.30
6627;DHT22;3349;49.830;8.748;2023-07-31T07:40:54;20.30;60.90
6627;DHT22;3349;49.830;8.748;2023-07-31T07:43:22;20.40;60.20
6627;DHT22;3349;49.830;8.748;2023-07-31T07:45:49;20.40;59.60
6627;DHT22;3349;49.830;8.748;2023-07-31T07:48:16;20.40;60.00
6627;DHT22;3349;49.830;8.748;2023-07-31T07:50:43;20.50;59.60
6627;DHT22;3349;49.830;8.748;2023-07-31T07:53:10;20.40;59.80
6627;DHT22;3349;49.830;8.748;2023-07-31T07:55:36;20.40;60.40
6627;DHT22;3349;49.830;8.748;2023-07-31T07:58:03;20.40;59.90
6627;DHT22;3349;49.830;8.748;2023-07-31T08:00:31;20.30;59.60
6627;DHT22;3349;49.830;8.748;2023-07-31T08:02:58;20.20;60.20
6627;DHT22;3349;49.830;8.748;2023-07-31T08:05:25;20.10;60.90
6627;DHT22;3349;49.830;8.748;2023-07-31T08:07:51;20.00;61.20
6627;DHT22;3349;49.830;8.748;2023-07-31T08:10:18;20.00;62.00
6627;DHT22;3349;49.830;8.748;2023-07-31T08:12:45;20.00;61.90
6627;DHT22;3349;49.830;8.748;2023-07-31T08:15:11;20.30;61.40
6627;DHT22;3349;49.830;8.748;2023-07-31T08:17:39;20.40;60.30
6627;DHT22;3349;49.830;8.748;2023-07-31T08:20:07;20.60;59.40
6627;DHT22;3349;49.830;8.748;2023-07-31T08:22:34;20.60;59.90
6627;DHT22;3349;49.830;8.748;2023-07-31T08:25:01;20.60;59.40
6627;DHT22;3349;49.830;8.748;2023-07-31T08:27:28;20.70;59.40
6627;DHT22;3349;49.830;8.748;2023-07-31T08:29:55;21.30;58.60
6627;DHT22;3349;49.830;8.748;2023-07-31T08:32:22;22.30;55.40
6627;DHT22;3349;49.830;8.748;2023-07-31T08:34:50;22.80;52.10
6627;DHT22;3349;49.830;8.748;2023-07-31T08:37:16;23.00;51.70
6627;DHT22;3349;49.830;8.748;2023-07-31T08:39:43;22.70;52.20
6627;DHT22;3349;49.830;8.748;2023-07-31T08:42:10;22.60;53.10
6627;DHT22;3349;49.830;8.748;2023-07-31T08:44:37;22.50;52.70
6627;DHT22;3349;49.830;8.748;2023-07-31T08:47:05;22.70;53.30
6627;DHT22;3349;49.830;8.748;2023-07-31T08:49:32;23.00;51.20
6627;DHT22;3349;49.830;8.748;2023-07-31T08:52:01;22.80;51.00
6627;DHT22;3349;49.830;8.748;2023-07-31T08:54:29;22.80;51.80
6627;DHT22;3349;49.830;8.748;2023-07-31T08:56:57;22.60;52.10
6627;DHT22;3349;49.830;8.748;2023-07-31T08:59:27;22.40;51.90
6627;DHT22;3349;49.830;8.748;2023-07-31T09:01:55;21.90;52.70
6627;DHT22;3349;49.830;8.748;2023-07-31T09:04:25;21.80;53.80
6627;DHT22;3349;49.830;8.748;2023-07-31T09:06:59;21.70;54.60
6627;DHT22;3349;49.830;8.748;2023-07-31T09:09:27;21.60;54.90
6627;DHT22;3349;49.830;8.748;2023-07-31T09:11:55;21.80;55.30
6627;DHT22;3349;49.830;8.748;2023-07-31T09:14:22;22.20;54.60
6627;DHT22;3349;49.830;8.748;2023-07-31T09:16:54;22.70;52.60
6627;DHT22;3349;49.830;8.748;2023-07-31T09:19:25;23.00;51.20
6627;DHT22;3349;49.830;8.748;2023-07-31T09:21:53;23.00;51.60
6627;DHT22;3349;49.830;8.748;2023-07-31T09:24:25;22.80;51.50
6627;DHT22;3349;49.830;8.748;2023-07-31T09:26:55;22.60;51.90
6627;DHT22;3349;49.830;8.748;2023-07-31T09:29:22;22.20;52.50
6627;DHT22;3349;49.830;8.748;2023-07-31T09:31:50;21.80;53.70
6627;DHT22;3349;49.830;8.748;2023-07-31T09:34:17;21.60;54.80
6627;DHT22;3349;49.830;8.748;2023-07-31T09:36:44;21.60;55.20
6627;DHT22;3349;49.830;8.748;2023-07-31T09:39:12;21.50;55.90
6627;DHT22;3349;49.830;8.748;2023-07-31T09:41:41;21.40;56.60
6627;DHT22;3349;49.830;8.748;2023-07-31T09:44:09;21.50;56.70
6627;DHT22;3349;49.830;8.748;2023-07-31T09:46:36;21.70;56.30
6627;DHT22;3349;49.830;8.748;2023-07-31T09:49:05;22.10;54.70
6627;DHT22;3349;49.830;8.748;2023-07-31T09:51:32;22.60;53.70
6627;DHT22;3349;49.830;8.748;2023-07-31T09:54:10;24.40;50.30
6627;DHT22;3349;49.830;8.748;2023-07-31T09:56:42;25.30;47.00
6627;DHT22;3349;49.830;8.748;2023-07-31T09:59:13;25.20;46.00
6627;DHT22;3349;49.830;8.748;2023-07-31T10:01:40;24.90;45.30
6627;DHT22;3349;49.830;8.748;2023-07-31T10:04:08;24.30;46.40
6627;DHT22;3349;49.830;8.748;2023-07-31T10:06:35;24.00;47.20
6627;DHT22;3349;49.830;8.748;2023-07-31T10:09:03;24.30;47.20
6627;DHT22;3349;49.830;8.748;2023-07-31T10:11:34;25.80;44.80
6627;DHT22;3349;49.830;8.748;2023-07-31T10:14:03;27.90;41.90
6627;DHT22;3349;49.830;8.748;2023-07-31T10:16:33;29.60;37.40
6627;DHT22;3349;49.830;8.748;2023-07-31T10:19:00;29.70;35.70
6627;DHT22;3349;49.830;8.748;2023-07-31T10:21:27;29.60;35.00
6627;DHT22;3349;49.830;8.748;2023-07-31T10:23:55;29.00;35.70
6627;DHT22;3349;49.830;8.748;2023-07-31T10:26:23;29.40;36.00
6627;DHT22;3349;49.830;8.748;2023-07-31T10:28:52;30.50;33.90
6627;DHT22;3349;49.830;8.748;2023-07-31T10:31:20;30.80;32.30
6627;DHT22;3349;49.830;8.748;2023-07-31T10:33:49;30.40;33.10
6627;DHT22;3349;49.830;8.748;2023-07-31T10:36:18;29.30;33.90
6627;DHT22;3349;49.830;8.748;2023-07-31T10:38:45;27.90;36.50
6627;DHT22;3349;49.830;8.748;2023-07-31T10:41:12;27.80;37.40
6627;DHT22;3349;49.830;8.748;2023-07-31T10:43:39;29.20;36.00
6627;DHT22;3349;49.830;8.748;2023-07-31T10:46:09;29.20;34.30
6627;DHT22;3349;49.830;8.748;2023-07-31T10:48:39;29.20;34.50
6627;DHT22;3349;49.830;8.748;2023-07-31T10:51:09;28.70;35.50
6627;DHT22;3349;49.830;8.748;2023-07-31T10:53:37;27.40;38.00
6627;DHT22;3349;49.830;8.748;2023-07-31T10:56:06;26.00;40.30
6627;DHT22;3349;49.830;8.748;2023-07-31T10:58:33;25.40;45.40
6627;DHT22;3349;49.830;8.748;2023-07-31T11:01:02;25.70;44.80
6627;DHT22;3349;49.830;8.748;2023-07-31T11:03:41;26.50;42.30
6627;DHT22;3349;49.830;8.748;2023-07-31T11:06:10;26.80;41.20
6627;DHT22;3349;49.830;8.748;2023-07-31T11:08:42;27.90;39.90
6627;DHT22;3349;49.830;8.748;2023-07-31T11:11:10;28.20;37.70
6627;DHT22;3349;49.830;8.748;2023-07-31T11:13:42;28.40;37.50
6627;DHT22;3349;49.830;8.748;2023-07-31T11:16:09;29.10;35.50
6627;DHT22;3349;49.830;8.748;2023-07-31T11:18:38;28.80;35.20
6627;DHT22;3349;49.830;8.748;2023-07-31T11:21:05;27.70;37.30
6627;DHT22;3349;49.830;8.748;2023-07-31T11:23:33;26.80;37.30
6627;DHT22;3349;49.830;8.748;2023-07-31T11:26:00;25.80;39.80
6627;DHT22;3349;49.830;8.748;2023-07-31T11:28:31;25.10;41.30
6627;DHT22;3349;49.830;8.748;2023-07-31T11:31:00;24.50;42.80
6627;DHT22;3349;49.830;8.748;2023-07-31T11:33:27;24.00;43.40
6627;DHT22;3349;49.830;8.748;2023-07-31T11:35:54;23.50;47.70
6627;DHT22;3349;49.830;8.748;2023-07-31T11:38:24;23.20;49.50
6627;DHT22;3349;49.830;8.748;2023-07-31T11:40:53;23.10;51.40
6627;DHT22;3349;49.830;8.748;2023-07-31T11:43:21;22.90;55.80
6627;DHT22;3349;49.830;8.748;2023-07-31T11:45:49;22.80;55.70
6627;DHT22;3349;49.830;8.748;2023-07-31T11:48:20;22.80;55.20
6627;DHT22;3349;49.830;8.748;2023-07-31T11:50:49;22.90;54.10
6627;DHT22;3349;49.830;8.748;2023-07-31T11:53:18;23.10;53.30
6627;DHT22;3349;49.830;8.748;2023-07-31T11:55:45;23.50;51.60
6627;DHT22;3349;49.830;8.748;2023-07-31T11:58:15;23.60;50.10
6627;DHT22;3349;49.830;8.748;2023-07-31T12:00:42;23.80;48.90
6627;DHT22;3349;49.830;8.748;2023-07-31T12:03:09;24.00;49.30
6627;DHT22;3349;49.830;8.748;2023-07-31T12:05:37;23.90;48.50
6627;DHT22;3349;49.830;8.748;2023-07-31T12:08:09;23.90;49.20
6627;DHT22;3349;49.830;8.748;2023-07-31T12:10:37;23.90;49.50
6627;DHT22;3349;49.830;8.748;2023-07-31T12:13:09;23.70;49.50
6627;DHT22;3349;49.830;8.748;2023-07-31T12:15:41;23.80;49.30
6627;DHT22;3349;49.830;8.748;2023-07-31T12:18:09;23.70;48.60
6627;DHT22;3349;49.830;8.748;2023-07-31T12:20:41;24.00;48.40
6627;DHT22;3349;49.830;8.748;2023-07-31T12:23:13;24.20;48.40
6627;DHT22;3349;49.830;8.748;2023-07-31T12:25:40;24.50;48.00
6627;DHT22;3349;49.830;8.748;2023-07-31T12:28:07;24.50;47.10
6627;DHT22;3349;49.830;8.748;2023-07-31T12:30:39;24.60;47.80
6627;DHT22;3349;49.830;8.748;2023-07-31T12:33:12;24.50;46.00
6627;DHT22;3349;49.830;8.748;2023-07-31T12:35:41;24.40;46.20
6627;DHT22;3349;49.830;8.748;2023-07-31T12:38:08;24.20;46.40
6627;DHT22;3349;49.830;8.748;2023-07-31T12:40:37;23.90;47.00
6627;DHT22;3349;49.830;8.748;2023-07-31T12:43:05;23.50;47.70
6627;DHT22;3349;49.830;8.748;2023-07-31T12:45:32;23.30;48.30
6627;DHT22;3349;49.830;8.748;2023-07-31T12:48:01;23.10;49.30
6627;DHT22;3349;49.830;8.748;2023-07-31T12:50:28;23.00;50.20
6627;DHT22;3349;49.830;8.748;2023-07-31T12:52:54;22.90;50.20
6627;DHT22;3349;49.830;8.748;2023-07-31T12:55:22;22.90;49.90
6627;DHT22;3349;49.830;8.748;2023-07-31T12:57:49;22.80;49.80
6627;DHT22;3349;49.830;8.748;2023-07-31T13:00:16;22.80;50.50
6627;DHT22;3349;49.830;8.748;2023-07-31T13:02:43;22.70;49.50
6627;DHT22;3349;49.830;8.748;2023-07-31T13:05:11;22.70;49.80
6627;DHT22;3349;49.830;8.748;2023-07-31T13:07:38;22.70;48.70
6627;DHT22;3349;49.830;8.748;2023-07-31T13:10:06;22.60;49.40
6627;DHT22;3349;49.830;8.748;2023-07-31T13:12:33;22.70;50.10
6627;DHT22;3349;49.830;8.748;2023-07-31T13:15:00;22.60;49.90
6627;DHT22;3349;49.830;8.748;2023-07-31T13:17:27;22.70;49.80
6627;DHT22;3349;49.830;8.748;2023-07-31T13:19:53;22.80;49.50
6627;DHT22;3349;49.830;8.748;2023-07-31T13:22:21;22.90;49.60
6627;DHT22;3349;49.830;8.748;2023-07-31T13:24:48;22.90;49.00
6627;DHT22;3349;49.830;8.748;2023-07-31T13:27:15;23.10;48.70
6627;DHT22;3349;49.830;8.748;2023-07-31T13:29:44;23.20;47.90
6627;DHT22;3349;49.830;8.748;2023-07-31T13:32:10;23.30;48.10
6627;DHT22;3349;49.830;8.748;2023-07-31T13:34:37;23.30;47.70
6627;DHT22;3349;49.830;8.748;2023-07-31T13:37:04;23.40;48.10
6627;DHT22;3349;49.830;8.748;2023-07-31T13:39:32;23.60;47.20
6627;DHT22;3349;49.830;8.748;2023-07-31T13:41:59;23.40;47.60
6627;DHT22;3349;49.830;8.748;2023-07-31T13:44:26;23.30;48.00
6627;DHT22;3349;49.830;8.748;2023-07-31T13:46:52;23.20;48.30
6627;DHT22;3349;49.830;8.748;2023-07-31T13:49:19;23.10;49.00
6627;DHT22;3349;49.830;8.748;2023-07-31T13:51:46;23.00;49.50
6627;DHT22;3349;49.830;8.748;2023-07-31T13:54:12;23.00;49.60
6627;DHT22;3349;49.830;8.748;2023-07-31T13:56:43;22.90;49.60
6627;DHT22;3349;49.830;8.748;2023-07-31T13:59:10;22.70;50.30
6627;DHT22;3349;49.830;8.748;2023-07-31T14:01:37;22.60;50.80
6627;DHT22;3349;49.830;8.748;2023-07-31T14:04:04;22.50;50.70
6627;DHT22;3349;49.830;8.748;2023-07-31T14:06:30;22.50;50.70
6627;DHT22;3349;49.830;8.748;2023-07-31T14:08:57;22.50;50.70
6627;DHT22;3349;49.830;8.748;2023-07-31T14:11:24;22.50;50.70
6627;DHT22;3349;49.830;8.748;2023-07-31T14:13:52;22.50;51.40
6627;DHT22;3349;49.830;8.748;2023-07-31T14:16:18;22.40;51.40
6627;DHT22;3349;49.830;8.748;2023-07-31T14:18:45;22.30;52.30
6627;DHT22;3349;49.830;8.748;2023-07-31T14:21:12;22.20;52.60
6627;DHT22;3349;49.830;8.748;2023-07-31T14:23:39;22.10;52.50
6627;DHT22;3349;49.830;8.748;2023-07-31T14:26:05;22.10;53.00
6627;DHT22;3349;49.830;8.748;2023-07-31T14:28:32;22.00;53.00
6627;DHT22;3349;49.830;8.748;2023-07-31T14:31:00;22.00;53.50
6627;DHT22;3349;49.830;8.748;2023-07-31T14:33:27;22.00;53.80
6627;DHT22;3349;49.830;8.748;2023-07-31T14:35:54;21.90;54.10
6627;DHT22;3349;49.830;8.748;2023-07-31T14:38:20;21.90;54.20
6627;DHT22;3349;49.830;8.748;2023-07-31T14:40:47;21.90;54.20
6627;DHT22;3349;49.830;8.748;2023-07-31T14:43:14;21.90;54.50
6627;DHT22;3349;49.830;8.748;2023-07-31T14:45:40;21.80;54.80
6627;DHT22;3349;49.830;8.748;2023-07-31T14:48:09;21.80;54.50
6627;DHT22;3349;49.830;8.748;2023-07-31T14:50:35;21.80;54.60
6627;DHT22;3349;49.830;8.748;2023-07-31T14:53:02;21.80;54.30
6627;DHT22;3349;49.830;8.748;2023-07-31T14:55:29;21.70;54.30
6627;DHT22;3349;49.830;8.748;2023-07-31T14:57:55;21.70;54.20
6627;DHT22;3349;49.830;8.748;2023-07-31T15:00:22;21.80;54.40
6627;DHT22;3349;49.830;8.748;2023-07-31T15:02:50;21.80;54.30
6627;DHT22;3349;49.830;8.748;2023-07-31T15:05:18;22.00;54.30
6627;DHT22;3349;49.830;8.748;2023-07-31T15:07:44;22.00;54.20
6627;DHT22;3349;49.830;8.748;2023-07-31T15:10:11;22.00;54.40
6627;DHT22;3349;49.830;8.748;2023-07-31T15:12:40;22.00;54.20
6627;DHT22;3349;49.830;8.748;2023-07-31T15:15:07;22.00;54.20
6627;DHT22;3349;49.830;8.748;2023-07-31T15:17:34;22.10;54.30
6627;DHT22;3349;49.830;8.748;2023-07-31T15:20:01;22.10;53.90
6627;DHT22;3349;49.830;8.748;2023-07-31T15:22:29;22.00;54.40
6627;DHT22;3349;49.830;8.748;2023-07-31T15:24:56;22.00;54.70
6627;DHT22;3349;49.830;8.748;2023-07-31T15:27:22;21.90;54.90
6627;DHT22;3349;49.830;8.748;2023-07-31T15:29:49;21.80;55.30
6627;DHT22;3349;49.830;8.748;2023-07-31T15:32:16;21.90;55.50
6627;DHT22;3349;49.830;8.748;2023-07-31T15:34:44;21.80;55.80
6627;DHT22;3349;49.830;8.748;2023-07-31T15:37:11;21.80;56.20
6627;DHT22;3349;49.830;8.748;2023-07-31T15:39:39;21.80;56.20
6627;DHT22;3349;49.830;8.748;2023-07-31T15:42:06;21.80;55.80
6627;DHT22;3349;49.830;8.748;2023-07-31T15:44:34;21.80;56.10
6627;DHT22;3349;49.830;8.748;2023-07-31T15:47:01;21.90;55.50
6627;DHT22;3349;49.830;8.748;2023-07-31T15:49:28;21.90;54.70
6627;DHT22;3349;49.830;8.748;2023-07-31T15:51:54;21.90;54.00
6627;DHT22;3349;49.830;8.748;2023-07-31T15:54:21;21.90;52.80
6627;DHT22;3349;49.830;8.748;2023-07-31T15:56:49;21.90;52.70
6627;DHT22;3349;49.830;8.748;2023-07-31T15:59:16;21.90;52.80
6627;DHT22;3349;49.830;8.748;2023-07-31T16:01:43;21.90;52.30
6627;DHT22;3349;49.830;8.748;2023-07-31T16:04:09;21.90;52.20